Time;durP1;ratioP1;P1;durP2;ratioP2;P2;SDS_P1;SDS_P2;PMS_P1;PMS_P2;Temp;Humidity;BMP_temperature;BMP_pressure;BME280_temperature;BME280_humidity;BME280_pressure;Samples;Min_cycle;Max_cycle;Signal;HPM_P1;HPM_P2
2024/01/10 00:00:21;;;;;;;;;;;25.00;23.40;;;;;;5090845;28;19970;-69
2024/01/10 00:02:47;;;;;;;;;;;25.10;23.40;;;;;;5073318;28;19920;-70
2024/01/10 00:05:13;;;;;;;;;;;25.10;23.40;;;;;;5090746;28;20033;-69
2024/01/10 00:07:41;;;;;;;;;;;25.10;23.90;;;;;;5090717;28;19920;-69
2024/01/10 00:10:07;;;;;;;;;;;25.10;23.30;;;;;;5091944;28;19985;-68
2024/01/10 00:12:36;;;;;;;;;;;25.10;23.30;;;;;;5090889;28;20363;-68
2024/01/10 00:15:04;;;;;;;;;;;25.10;23.30;;;;;;5091177;28;19916;-68
2024/01/10 00:17:30;;;;;;;;;;;25.10;23.30;;;;;;5056933;28;20003;-69
2024/01/10 00:19:55;;;;;;;;;;;25.10;23.30;;;;;;5090763;28;20452;-69
2024/01/10 00:22:21;;;;;;;;;;;25.10;23.40;;;;;;5091882;28;19916;-69
2024/01/10 00:24:47;;;;;;;;;;;25.10;23.40;;;;;;5092315;28;19916;-68
2024/01/10 00:27:18;;;;;;;;;;;25.20;23.40;;;;;;5090309;28;19922;-68
2024/01/10 00:29:44;;;;;;;;;;;25.20;23.40;;;;;;5091551;28;20316;-68
2024/01/10 00:32:10;;;;;;;;;;;25.20;23.40;;;;;;5091528;28;19920;-68
2024/01/10 00:34:35;;;;;;;;;;;25.20;23.40;;;;;;5091460;28;20306;-69
2024/01/10 00:37:01;;;;;;;;;;;25.20;23.30;;;;;;5091764;28;19916;-69
2024/01/10 00:39:26;;;;;;;;;;;25.20;23.30;;;;;;5091610;28;20271;-69
2024/01/10 00:41:52;;;;;;;;;;;25.20;23.30;;;;;;5091543;28;19916;-68
2024/01/10 00:44:17;;;;;;;;;;;25.20;23.30;;;;;;5091796;28;19977;-70
2024/01/10 00:46:43;;;;;;;;;;;25.20;23.30;;;;;;5091468;28;19923;-69
2024/01/10 00:49:08;;;;;;;;;;;25.10;23.40;;;;;;5091442;28;20432;-68
2024/01/10 00:51:34;;;;;;;;;;;25.00;23.40;;;;;;5092184;28;19920;-68
2024/01/10 00:53:59;;;;;;;;;;;25.00;23.40;;;;;;5091288;28;20282;-68
2024/01/10 00:56:25;;;;;;;;;;;24.90;23.50;;;;;;5091705;28;19920;-69
2024/01/10 00:58:50;;;;;;;;;;;24.90;23.50;;;;;;5092380;28;19916;-70
2024/01/10 01:01:16;;;;;;;;;;;24.90;23.40;;;;;;5091670;28;19926;-68
2024/01/10 01:03:41;;;;;;;;;;;24.90;23.40;;;;;;5091319;28;20371;-68
2024/01/10 01:06:07;;;;;;;;;;;25.00;23.40;;;;;;5091467;28;19965;-67
2024/01/10 01:08:33;;;;;;;;;;;25.10;23.40;;;;;;5091346;28;20341;-68
2024/01/10 01:10:58;;;;;;;;;;;25.10;23.30;;;;;;5092241;28;20435;-68
2024/01/10 01:13:24;;;;;;;;;;;25.20;23.30;;;;;;5091140;28;19930;-68
2024/01/10 01:15:49;;;;;;;;;;;25.20;23.30;;;;;;5090969;28;20018;-68
2024/01/10 01:18:15;;;;;;;;;;;25.20;23.30;;;;;;5091356;28;19922;-70
2024/01/10 01:20:40;;;;;;;;;;;25.30;23.30;;;;;;5092265;28;20370;-68
2024/01/10 01:23:06;;;;;;;;;;;25.30;23.30;;;;;;5091289;28;20383;-68
2024/01/10 01:25:34;;;;;;;;;;;25.30;23.30;;;;;;5091236;28;20305;-70
2024/01/10 01:28:00;;;;;;;;;;;25.20;23.20;;;;;;5091219;28;19969;-70
2024/01/10 01:30:25;;;;;;;;;;;25.20;23.30;;;;;;5090757;28;19927;-70
2024/01/10 01:32:51;;;;;;;;;;;25.20;23.30;;;;;;5091274;28;19916;-69
2024/01/10 01:35:22;;;;;;;;;;;25.20;23.20;;;;;;5090813;28;19916;-69
2024/01/10 01:37:48;;;;;;;;;;;25.20;23.30;;;;;;5092124;28;19924;-68
2024/01/10 01:40:13;;;;;;;;;;;25.30;23.30;;;;;;5091027;28;20302;-70
2024/01/10 01:42:39;;;;;;;;;;;25.30;23.30;;;;;;5091127;28;19916;-70
2024/01/10 01:45:05;;;;;;;;;;;25.20;23.20;;;;;;5092220;28;19916;-69
2024/01/10 01:47:30;;;;;;;;;;;25.30;23.30;;;;;;5092236;28;20419;-69
2024/01/10 01:49:56;;;;;;;;;;;25.30;23.30;;;;;;5091897;28;20367;-69
2024/01/10 01:52:22;;;;;;;;;;;25.30;23.20;;;;;;5090676;28;19927;-70
2024/01/10 01:54:47;;;;;;;;;;;25.30;23.20;;;;;;5090919;28;20274;-69
2024/01/10 01:57:13;;;;;;;;;;;25.30;23.20;;;;;;5090613;28;19916;-68
2024/01/10 01:59:39;;;;;;;;;;;25.30;23.20;;;;;;5093775;28;19916;-69
2024/01/10 02:02:08;;;;;;;;;;;25.30;23.20;;;;;;5094248;28;19998;-69
2024/01/10 02:04:33;;;;;;;;;;;25.30;23.20;;;;;;5095514;28;20282;-70
2024/01/10 02:07:02;;;;;;;;;;;25.30;23.20;;;;;;5094441;28;19916;-69
2024/01/10 02:09:28;;;;;;;;;;;25.30;23.20;;;;;;5095431;28;20370;-69
2024/01/10 02:11:53;;;;;;;;;;;25.30;23.20;;;;;;5095190;28;19927;-69
2024/01/10 02:14:19;;;;;;;;;;;25.30;23.20;;;;;;5094151;28;20419;-69
2024/01/10 02:16:45;;;;;;;;;;;25.30;23.10;;;;;;5095466;28;19916;-70
2024/01/10 02:19:18;;;;;;;;;;;25.30;23.20;;;;;;5095390;28;19916;-69
2024/01/10 02:21:44;;;;;;;;;;;25.30;23.20;;;;;;5094167;28;19916;-70
2024/01/10 02:24:09;;;;;;;;;;;25.30;23.10;;;;;;5095158;28;19923;-69
2024/01/10 02:26:35;;;;;;;;;;;25.40;23.10;;;;;;5095108;28;19916;-69
2024/01/10 02:29:00;;;;;;;;;;;25.30;23.10;;;;;;5094071;28;19916;-68
2024/01/10 02:31:27;;;;;;;;;;;25.30;23.10;;;;;;5093794;28;19931;-70
2024/01/10 02:33:52;;;;;;;;;;;25.30;23.00;;;;;;5093998;28;20382;-71
2024/01/10 02:36:18;;;;;;;;;;;25.30;23.10;;;;;;5093653;28;19916;-68
2024/01/10 02:38:43;;;;;;;;;;;25.20;23.10;;;;;;5077062;28;19981;-69
2024/01/10 02:41:09;;;;;;;;;;;25.10;23.10;;;;;;5093789;28;19920;-68
2024/01/10 02:43:34;;;;;;;;;;;25.00;23.20;;;;;;5093545;28;19916;-68
2024/01/10 02:46:00;;;;;;;;;;;25.00;23.80;;;;;;5093570;28;19916;-69
2024/01/10 02:48:25;;;;;;;;;;;24.90;23.30;;;;;;5093419;28;20349;-70
2024/01/10 02:50:51;;;;;;;;;;;24.90;23.30;;;;;;5093146;28;19920;-70
2024/01/10 02:53:16;;;;;;;;;;;24.90;23.40;;;;;;5093282;28;20271;-70
2024/01/10 02:55:43;;;;;;;;;;;24.90;23.30;;;;;;5093499;28;19916;-70
2024/01/10 02:58:08;;;;;;;;;;;25.00;23.30;;;;;;5093136;28;19923;-69
2024/01/10 03:00:34;;;;;;;;;;;25.00;23.20;;;;;;5093525;28;19916;-68
2024/01/10 03:02:59;;;;;;;;;;;25.10;23.20;;;;;;5094479;28;19916;-69
2024/01/10 03:05:25;;;;;;;;;;;25.10;23.20;;;;;;5093244;28;19922;-69
2024/01/10 03:07:50;;;;;;;;;;;25.20;23.20;;;;;;5093323;28;19916;-68
2024/01/10 03:10:16;;;;;;;;;;;25.20;23.10;;;;;;5093436;28;19920;-68
2024/01/10 03:12:41;;;;;;;;;;;25.20;23.10;;;;;;5092813;28;19926;-69
2024/01/10 03:15:10;;;;;;;;;;;25.30;23.10;;;;;;5094190;28;19923;-70
2024/01/10 03:17:36;;;;;;;;;;;25.30;23.10;;;;;;5094295;28;19955;-70
2024/01/10 03:20:03;;;;;;;;;;;25.30;23.10;;;;;;5092762;28;19954;-68
2024/01/10 03:22:29;;;;;;;;;;;25.40;23.10;;;;;;5093043;28;19916;-70
2024/01/10 03:24:57;;;;;;;;;;;25.40;23.00;;;;;;5092654;28;19916;-69
2024/01/10 03:27:23;;;;;;;;;;;25.40;23.00;;;;;;5092631;28;19923;-68
2024/01/10 03:29:48;;;;;;;;;;;25.40;23.00;;;;;;5092838;28;20014;-70
2024/01/10 03:32:14;;;;;;;;;;;25.30;22.90;;;;;;5092527;28;19968;-71
2024/01/10 03:34:41;;;;;;;;;;;25.30;23.00;;;;;;5092455;28;20317;-70
2024/01/10 03:37:06;;;;;;;;;;;25.40;23.00;;;;;;5092467;28;19927;-69
2024/01/10 03:39:32;;;;;;;;;;;25.30;22.90;;;;;;5093662;28;19916;-70
2024/01/10 03:41:57;;;;;;;;;;;25.30;23.00;;;;;;5092342;28;20283;-70
2024/01/10 03:44:23;;;;;;;;;;;25.30;22.90;;;;;;5092583;28;19963;-70
2024/01/10 03:46:48;;;;;;;;;;;25.30;23.00;;;;;;5093607;28;20351;-69
2024/01/10 03:49:14;;;;;;;;;;;25.30;22.90;;;;;;5092452;28;20351;-70
2024/01/10 03:51:40;;;;;;;;;;;25.40;22.90;;;;;;5091931;28;19920;-68
2024/01/10 03:54:06;;;;;;;;;;;25.40;22.90;;;;;;5092064;28;19920;-68
2024/01/10 03:56:31;;;;;;;;;;;25.30;22.90;;;;;;5092248;28;19961;-69
2024/01/10 03:58:57;;;;;;;;;;;25.30;22.90;;;;;;5092561;28;19930;-71
2024/01/10 04:01:23;;;;;;;;;;;25.30;22.90;;;;;;5093608;28;19922;-70
2024/01/10 04:03:49;;;;;;;;;;;25.40;23.00;;;;;;5092320;28;19916;-68
2024/01/10 04:06:15;;;;;;;;;;;25.30;22.90;;;;;;5091887;28;19923;-69
2024/01/10 04:08:40;;;;;;;;;;;25.30;22.90;;;;;;5093181;28;19969;-70
2024/01/10 04:11:06;;;;;;;;;;;25.30;22.90;;;;;;5091930;28;20268;-69
2024/01/10 04:13:31;;;;;;;;;;;25.40;22.90;;;;;;5093086;28;19976;-69
2024/01/10 04:15:57;;;;;;;;;;;25.30;22.90;;;;;;5093019;28;20332;-69
2024/01/10 04:18:22;;;;;;;;;;;25.30;22.90;;;;;;5091740;28;20456;-70
2024/01/10 04:20:49;;;;;;;;;;;25.30;22.90;;;;;;5092488;28;19916;-70
2024/01/10 04:23:14;;;;;;;;;;;25.30;22.90;;;;;;5092882;28;19923;-68
2024/01/10 04:25:40;;;;;;;;;;;25.30;23.40;;;;;;5091537;28;19916;-69
2024/01/10 04:28:05;;;;;;;;;;;25.40;22.90;;;;;;5091870;28;19920;-69
2024/01/10 04:30:31;;;;;;;;;;;25.30;22.90;;;;;;5091404;28;20439;-69
2024/01/10 04:32:56;;;;;;;;;;;25.30;22.80;;;;;;5091786;28;19916;-69
2024/01/10 04:35:22;;;;;;;;;;;25.30;22.90;;;;;;5092646;28;20363;-69
2024/01/10 04:37:47;;;;;;;;;;;25.30;22.90;;;;;;5092835;28;20382;-68
2024/01/10 04:40:13;;;;;;;;;;;25.30;22.80;;;;;;5093199;28;20291;-68
2024/01/10 04:42:39;;;;;;;;;;;25.40;22.90;;;;;;5091665;28;20266;-68
2024/01/10 04:45:04;;;;;;;;;;;25.40;22.90;;;;;;5092577;28;20262;-70
2024/01/10 04:47:30;;;;;;;;;;;25.30;22.80;;;;;;5091551;28;19916;-68
2024/01/10 04:49:56;;;;;;;;;;;25.30;22.80;;;;;;5092701;28;19920;-68
2024/01/10 04:52:21;;;;;;;;;;;25.30;22.80;;;;;;5091229;28;20395;-68
2024/01/10 04:54:47;;;;;;;;;;;25.30;22.80;;;;;;5092462;28;19974;-69
2024/01/10 04:57:12;;;;;;;;;;;25.40;22.80;;;;;;5092536;28;19916;-69
2024/01/10 04:59:38;;;;;;;;;;;25.40;22.80;;;;;;5091465;28;19923;-70
2024/01/10 05:02:03;;;;;;;;;;;25.40;22.80;;;;;;5092407;28;19916;-68
2024/01/10 05:04:29;;;;;;;;;;;25.40;22.80;;;;;;5092673;28;19916;-68
2024/01/10 05:06:54;;;;;;;;;;;25.40;22.80;;;;;;5091467;28;19957;-68
2024/01/10 05:09:20;;;;;;;;;;;25.40;22.80;;;;;;5091472;28;20351;-70
2024/01/10 05:11:48;;;;;;;;;;;25.40;22.80;;;;;;5092547;28;20377;-69
2024/01/10 05:14:19;;;;;;;;;;;25.40;22.80;;;;;;5091980;28;19943;-69
2024/01/10 05:16:45;;;;;;;;;;;25.50;22.80;;;;;;5092401;28;20378;-69
2024/01/10 05:19:10;;;;;;;;;;;25.50;22.80;;;;;;5091355;28;19916;-69
2024/01/10 05:21:36;;;;;;;;;;;25.50;22.70;;;;;;5091040;28;20324;-70
2024/01/10 05:24:01;;;;;;;;;;;25.60;22.70;;;;;;5091239;28;19916;-70
2024/01/10 05:26:27;;;;;;;;;;;25.70;22.70;;;;;;5091353;28;19962;-69
2024/01/10 05:28:52;;;;;;;;;;;25.80;22.70;;;;;;5092157;28;20347;-69
2024/01/10 05:31:18;;;;;;;;;;;25.90;22.60;;;;;;5090765;28;19986;-69
2024/01/10 05:33:44;;;;;;;;;;;26.00;22.60;;;;;;5092334;28;19916;-70
2024/01/10 05:36:12;;;;;;;;;;;26.00;22.50;;;;;;5096113;28;20022;-70
2024/01/10 05:38:38;;;;;;;;;;;26.10;22.50;;;;;;5096138;28;19916;-69
2024/01/10 05:41:05;;;;;;;;;;;26.20;22.40;;;;;;5094777;28;19916;-69
2024/01/10 05:43:31;;;;;;;;;;;26.30;22.40;;;;;;5096018;28;19939;-70
2024/01/10 05:45:57;;;;;;;;;;;26.30;22.40;;;;;;5095876;28;19923;-68
2024/01/10 05:48:25;;;;;;;;;;;26.30;22.50;;;;;;5095851;28;19916;-71
2024/01/10 05:50:57;;;;;;;;;;;26.20;22.40;;;;;;5094547;28;20252;-70
2024/01/10 05:53:24;;;;;;;;;;;26.20;22.50;;;;;;5095847;28;19939;-70
2024/01/10 05:55:51;;;;;;;;;;;26.10;22.50;;;;;;5094840;28;19966;-68
2024/01/10 05:58:16;;;;;;;;;;;26.10;22.50;;;;;;5095590;28;19920;-69
2024/01/10 06:00:42;;;;;;;;;;;26.00;22.50;;;;;;5094587;28;20248;-68
2024/01/10 06:03:07;;;;;;;;;;;26.00;22.90;;;;;;5095628;28;20347;-70
2024/01/10 06:05:35;;;;;;;;;;;25.90;22.50;;;;;;5095678;28;19923;-69
2024/01/10 06:08:04;;;;;;;;;;;25.90;22.50;;;;;;5095796;28;19916;-68
2024/01/10 06:10:29;;;;;;;;;;;25.90;22.60;;;;;;5094206;28;19916;-69
2024/01/10 06:12:55;;;;;;;;;;;25.80;22.60;;;;;;5094092;28;20284;-70
2024/01/10 06:15:20;;;;;;;;;;;25.80;23.20;;;;;;5095276;28;20347;-68
2024/01/10 06:17:46;;;;;;;;;;;25.80;22.60;;;;;;5094001;28;20282;-70
2024/01/10 06:20:11;;;;;;;;;;;25.80;22.60;;;;;;5093931;28;20015;-68
2024/01/10 06:22:37;;;;;;;;;;;25.80;22.60;;;;;;5094244;28;19926;-70
2024/01/10 06:25:02;;;;;;;;;;;25.80;22.60;;;;;;5095273;28;20316;-70
2024/01/10 06:27:30;;;;;;;;;;;25.80;22.60;;;;;;5094297;28;19938;-70
2024/01/10 06:29:55;;;;;;;;;;;25.80;22.50;;;;;;5094973;28;19960;-68
2024/01/10 06:32:21;;;;;;;;;;;25.90;22.60;;;;;;5093714;28;20007;-71
2024/01/10 06:34:46;;;;;;;;;;;25.90;22.50;;;;;;5093982;28;19923;-69
2024/01/10 06:37:12;;;;;;;;;;;25.90;22.40;;;;;;5093014;28;20015;-69
2024/01/10 06:39:37;;;;;;;;;;;25.90;22.50;;;;;;5093531;28;20017;-68
2024/01/10 06:42:05;;;;;;;;;;;25.90;22.50;;;;;;5092923;28;19924;-67
2024/01/10 06:44:31;;;;;;;;;;;25.80;22.60;;;;;;5091702;28;20429;-67
2024/01/10 06:46:57;;;;;;;;;;;25.40;21.70;;;;;;5091967;28;19920;-67
2024/01/10 06:49:22;;;;;;;;;;;25.00;21.80;;;;;;5092726;28;19942;-70
2024/01/10 06:51:48;;;;;;;;;;;24.60;22.10;;;;;;5088906;28;20393;-68
2024/01/10 06:54:14;;;;;;;;;;;24.50;22.20;;;;;;5090112;28;19927;-66
2024/01/10 06:56:39;;;;;;;;;;;24.40;22.20;;;;;;5087927;28;20331;-66
2024/01/10 06:59:05;;;;;;;;;;;24.30;22.20;;;;;;5088359;28;19939;-66
2024/01/10 07:01:30;;;;;;;;;;;24.10;22.20;;;;;;5089039;28;19993;-68
2024/01/10 07:03:56;;;;;;;;;;;24.10;22.30;;;;;;5087100;28;20390;-67
2024/01/10 07:06:22;;;;;;;;;;;24.10;22.30;;;;;;5086737;28;20260;-66
2024/01/10 07:08:49;;;;;;;;;;;24.00;22.30;;;;;;5084711;28;20003;-67
2024/01/10 07:11:15;;;;;;;;;;;24.00;22.30;;;;;;5073970;28;19932;-66
2024/01/10 07:13:41;;;;;;;;;;;24.00;22.30;;;;;;5073749;28;19928;-66
2024/01/10 07:16:06;;;;;;;;;;;24.00;22.40;;;;;;5109509;27;20422;-66
2024/01/10 07:18:32;;;;;;;;;;;24.00;22.90;;;;;;5076876;28;19920;-66
2024/01/10 07:20:57;;;;;;;;;;;24.10;22.30;;;;;;5076605;28;19920;-67
2024/01/10 07:23:23;;;;;;;;;;;24.10;22.40;;;;;;5053553;28;19928;-67
2024/01/10 07:25:49;;;;;;;;;;;24.30;22.50;;;;;;5069437;28;19924;-67
2024/01/10 07:28:15;;;;;;;;;;;24.50;22.40;;;;;;5068076;28;20423;-68
2024/01/10 07:30:41;;;;;;;;;;;24.90;22.30;;;;;;5070651;28;20000;-67
2024/01/10 07:33:10;;;;;;;;;;;25.10;22.20;;;;;;5075104;28;19981;-68
2024/01/10 07:35:35;;;;;;;;;;;25.10;22.20;;;;;;5071557;28;19924;-68
2024/01/10 07:38:01;;;;;;;;;;;25.00;22.10;;;;;;5078651;28;20271;-67
2024/01/10 07:40:26;;;;;;;;;;;25.00;22.10;;;;;;5072907;28;19924;-66
2024/01/10 07:42:52;;;;;;;;;;;24.90;21.90;;;;;;5104401;27;20431;-68
2024/01/10 07:45:17;;;;;;;;;;;25.00;21.80;;;;;;5072956;28;19977;-66
2024/01/10 07:47:43;;;;;;;;;;;25.10;21.50;;;;;;5073095;28;19924;-67
2024/01/10 07:50:09;;;;;;;;;;;25.30;21.30;;;;;;5078764;28;19988;-67
2024/01/10 07:52:35;;;;;;;;;;;25.20;21.20;;;;;;5078733;28;20160;-67
2024/01/10 07:55:01;;;;;;;;;;;25.10;21.20;;;;;;5075900;28;19939;-67
2024/01/10 07:57:27;;;;;;;;;;;25.00;21.10;;;;;;5073722;28;20461;-67
2024/01/10 07:59:53;;;;;;;;;;;24.80;21.20;;;;;;5077305;28;19920;-66
2024/01/10 08:02:18;;;;;;;;;;;24.70;21.30;;;;;;5075555;28;19999;-67
2024/01/10 08:04:44;;;;;;;;;;;24.50;21.40;;;;;;5075024;28;20414;-68
2024/01/10 08:07:09;;;;;;;;;;;24.60;21.70;;;;;;5075319;28;19970;-68
2024/01/10 08:09:36;;;;;;;;;;;24.70;21.50;;;;;;5075127;28;19925;-68
2024/01/10 08:12:02;;;;;;;;;;;24.70;21.30;;;;;;5072824;28;20323;-68
2024/01/10 08:14:28;;;;;;;;;;;24.70;21.30;;;;;;5079416;28;20031;-68
2024/01/10 08:16:54;;;;;;;;;;;24.50;21.30;;;;;;5077737;28;20640;-69
2024/01/10 08:19:20;;;;;;;;;;;24.50;21.50;;;;;;5078425;28;19919;-69
2024/01/10 08:21:45;;;;;;;;;;;24.60;21.50;;;;;;5075702;28;20326;-69
2024/01/10 08:24:11;;;;;;;;;;;24.90;21.50;;;;;;5063679;28;20430;-69
2024/01/10 08:26:37;;;;;;;;;;;25.20;21.40;;;;;;5075856;28;19921;-69
2024/01/10 08:29:06;;;;;;;;;;;25.50;21.30;;;;;;5082173;28;19920;-69
2024/01/10 08:31:32;;;;;;;;;;;25.80;21.10;;;;;;5076528;28;19971;-69
2024/01/10 08:33:57;;;;;;;;;;;26.00;21.10;;;;;;5072086;28;19966;-70
2024/01/10 08:36:24;;;;;;;;;;;26.20;21.00;;;;;;5073904;28;20019;-68
2024/01/10 08:38:52;;;;;;;;;;;26.40;20.90;;;;;;5078313;28;19962;-68
2024/01/10 08:41:19;;;;;;;;;;;26.50;20.90;;;;;;5076638;28;19920;-69
2024/01/10 08:43:46;;;;;;;;;;;26.70;20.90;;;;;;5074046;28;19928;-70
2024/01/10 08:46:11;;;;;;;;;;;26.70;20.90;;;;;;5072899;28;19923;-70
2024/01/10 08:48:37;;;;;;;;;;;26.70;20.90;;;;;;5073642;28;19920;-70
2024/01/10 08:51:03;;;;;;;;;;;26.70;20.90;;;;;;5072306;28;19958;-70
2024/01/10 08:53:28;;;;;;;;;;;26.60;20.90;;;;;;5073700;28;19921;-66
2024/01/10 08:55:54;;;;;;;;;;;26.60;20.80;;;;;;5075280;28;19927;-66
2024/01/10 08:58:20;;;;;;;;;;;26.20;20.50;;;;;;5077877;28;19921;-66
2024/01/10 09:00:45;;;;;;;;;;;25.70;20.60;;;;;;5079008;28;20027;-65
2024/01/10 09:03:12;;;;;;;;;;;25.20;20.70;;;;;;5078495;28;19920;-65
2024/01/10 09:05:38;;;;;;;;;;;24.90;20.80;;;;;;5078883;28;19924;-65
2024/01/10 09:08:03;;;;;;;;;;;24.70;21.00;;;;;;5078549;28;19927;-67
2024/01/10 09:10:29;;;;;;;;;;;24.60;21.10;;;;;;5076960;28;20386;-67
2024/01/10 09:12:54;;;;;;;;;;;24.50;21.10;;;;;;5079405;28;19925;-66
2024/01/10 09:15:20;;;;;;;;;;;24.50;20.90;;;;;;5078076;28;19928;-68
2024/01/10 09:17:45;;;;;;;;;;;24.60;20.60;;;;;;5041964;28;19928;-67
2024/01/10 09:20:11;;;;;;;;;;;24.80;20.70;;;;;;5074282;28;19924;-68
2024/01/10 09:22:37;;;;;;;;;;;24.90;20.80;;;;;;5074344;28;19931;-68
2024/01/10 09:25:05;;;;;;;;;;;25.20;20.80;;;;;;5079268;28;19928;-68
2024/01/10 09:27:33;;;;;;;;;;;25.40;20.80;;;;;;5074070;28;19924;-68
2024/01/10 09:29:59;;;;;;;;;;;25.70;20.80;;;;;;5081913;28;20375;-68
2024/01/10 09:32:25;;;;;;;;;;;26.00;20.80;;;;;;5076856;28;19928;-68
2024/01/10 09:34:51;;;;;;;;;;;26.20;20.80;;;;;;5071252;28;19989;-71
2024/01/10 09:37:16;;;;;;;;;;;26.20;20.60;;;;;;5073426;28;19924;-69
2024/01/10 09:39:42;;;;;;;;;;;26.00;20.60;;;;;;5076878;28;19932;-69
2024/01/10 09:42:08;;;;;;;;;;;25.90;20.90;;;;;;5072019;28;19924;-69
2024/01/10 09:44:33;;;;;;;;;;;25.80;21.00;;;;;;5076105;28;19934;-68
2024/01/10 09:47:00;;;;;;;;;;;25.80;21.10;;;;;;5078899;28;20397;-68
2024/01/10 09:49:26;;;;;;;;;;;25.80;21.10;;;;;;5074570;28;20001;-68
2024/01/10 09:51:53;;;;;;;;;;;25.70;21.20;;;;;;5074279;28;20141;-68
2024/01/10 09:54:20;;;;;;;;;;;25.60;21.40;;;;;;5073683;28;20269;-67
2024/01/10 09:56:46;;;;;;;;;;;25.60;21.60;;;;;;5079635;28;19928;-68
2024/01/10 09:59:12;;;;;;;;;;;25.50;21.60;;;;;;5072698;28;19931;-68
2024/01/10 10:01:39;;;;;;;;;;;25.50;21.70;;;;;;5077031;28;19924;-65
2024/01/10 10:04:07;;;;;;;;;;;25.50;21.90;;;;;;5076070;28;19924;-69
2024/01/10 10:06:33;;;;;;;;;;;25.50;21.90;;;;;;5105034;27;19956;-67
2024/01/10 10:08:59;;;;;;;;;;;25.60;21.90;;;;;;5076258;28;19928;-67
2024/01/10 10:11:25;;;;;;;;;;;25.60;21.90;;;;;;5074678;28;19929;-67
2024/01/10 10:13:50;;;;;;;;;;;25.50;22.00;;;;;;5077955;28;20014;-67
2024/01/10 10:16:22;;;;;;;;;;;25.50;22.10;;;;;;5075560;28;20430;-67
2024/01/10 10:18:49;;;;;;;;;;;25.40;21.90;;;;;;5072637;28;20030;-66
2024/01/10 10:21:16;;;;;;;;;;;25.30;21.90;;;;;;5073767;28;19924;-67
2024/01/10 10:23:43;;;;;;;;;;;25.20;22.20;;;;;;5077305;28;20391;-67
2024/01/10 10:26:09;;;;;;;;;;;25.20;22.40;;;;;;5108062;27;19964;-66
2024/01/10 10:28:35;;;;;;;;;;;25.40;22.50;;;;;;5076278;28;19938;-66
2024/01/10 10:31:01;;;;;;;;;;;25.40;22.60;;;;;;5076291;28;20014;-66
2024/01/10 10:33:26;;;;;;;;;;;25.30;22.70;;;;;;5078769;28;19928;-66
2024/01/10 10:35:52;;;;;;;;;;;25.20;22.80;;;;;;5073401;28;20209;-66
2024/01/10 10:38:17;;;;;;;;;;;25.30;22.70;;;;;;5072016;28;20606;-68
2024/01/10 10:40:43;;;;;;;;;;;25.50;22.60;;;;;;5066001;28;19928;-66
2024/01/10 10:43:12;;;;;;;;;;;25.70;22.50;;;;;;5080456;28;19951;-67
2024/01/10 10:45:39;;;;;;;;;;;26.00;22.40;;;;;;5069334;28;19927;-68
2024/01/10 10:48:06;;;;;;;;;;;26.20;22.20;;;;;;5067473;28;19925;-67
2024/01/10 10:50:33;;;;;;;;;;;26.30;22.10;;;;;;5067508;28;20676;-68
2024/01/10 10:53:00;;;;;;;;;;;26.40;22.00;;;;;;5073909;28;20870;-66
2024/01/10 10:55:26;;;;;;;;;;;26.40;22.00;;;;;;5070568;28;19931;-68
2024/01/10 10:57:52;;;;;;;;;;;26.40;22.00;;;;;;5070448;28;19959;-66
2024/01/10 11:00:20;;;;;;;;;;;26.30;22.00;;;;;;5077148;28;20047;-67
2024/01/10 11:02:46;;;;;;;;;;;26.20;22.70;;;;;;5076159;28;19985;-68
2024/01/10 11:05:11;;;;;;;;;;;26.00;21.90;;;;;;5072249;28;19951;-66
2024/01/10 11:07:41;;;;;;;;;;;25.90;22.00;;;;;;5070039;28;19925;-67
2024/01/10 11:10:12;;;;;;;;;;;25.70;22.10;;;;;;5071310;28;19940;-65
2024/01/10 11:18:19;;;;;;;;;;;25.30;22.10;;;;;;5092348;27;20382;-64
2024/01/10 11:23:40;;;;;;;;;;;25.20;22.10;;;;;;5113949;27;19920;-64
2024/01/10 11:26:07;;;;;;;;;;;25.20;22.00;;;;;;5123218;27;20007;-63
2024/01/10 11:28:33;;;;;;;;;;;25.30;21.80;;;;;;5123935;27;20258;-63
2024/01/10 11:30:58;;;;;;;;;;;25.40;21.50;;;;;;5089825;27;19923;-64
2024/01/10 11:33:36;;;;;;;;;;;25.50;21.40;;;;;;5094342;28;20023;-63
2024/01/10 11:36:17;;;;;;;;;;;25.50;21.40;;;;;;5109220;28;19920;-63
2024/01/10 11:46:53;;;;;;;;;;;25.50;21.30;;;;;;5101670;27;19938;-65
2024/01/10 11:49:19;;;;;;;;;;;25.70;21.40;;;;;;5088860;28;19919;-63
2024/01/10 11:51:46;;;;;;;;;;;25.90;21.50;;;;;;5085476;28;20011;-63
2024/01/10 11:54:11;;;;;;;;;;;26.10;21.30;;;;;;5088853;28;19927;-62
2024/01/10 11:56:38;;;;;;;;;;;26.20;21.20;;;;;;5084855;28;19920;-63
2024/01/10 11:59:08;;;;;;;;;;;26.40;21.40;;;;;;5102842;28;19920;-63
2024/01/10 12:01:33;;;;;;;;;;;26.50;21.40;;;;;;5093800;28;19966;-64
2024/01/10 12:04:00;;;;;;;;;;;26.60;21.30;;;;;;5084356;28;19963;-62
2024/01/10 12:06:25;;;;;;;;;;;26.70;21.40;;;;;;5085634;28;20010;-62
2024/01/10 12:08:51;;;;;;;;;;;26.70;21.40;;;;;;5087160;28;20010;-62
2024/01/10 12:11:17;;;;;;;;;;;26.80;21.50;;;;;;5105571;28;19920;-65
2024/01/10 12:13:43;;;;;;;;;;;26.60;21.10;;;;;;5105092;28;19928;-64
2024/01/10 12:16:08;;;;;;;;;;;26.20;20.90;;;;;;5083446;28;19926;-66
2024/01/10 12:18:34;;;;;;;;;;;25.80;21.00;;;;;;5091263;28;19932;-62
2024/01/10 12:20:59;;;;;;;;;;;25.50;21.40;;;;;;5103384;28;19920;-61
2024/01/10 12:23:30;;;;;;;;;;;25.50;21.60;;;;;;5087302;28;19923;-62
2024/01/10 12:26:03;;;;;;;;;;;25.50;21.40;;;;;;5104271;28;19924;-63
2024/01/10 12:28:28;;;;;;;;;;;25.60;21.20;;;;;;5105604;28;19967;-63
2024/01/10 12:30:54;;;;;;;;;;;25.50;21.10;;;;;;5089776;28;20387;-64
2024/01/10 12:33:22;;;;;;;;;;;25.40;21.10;;;;;;5103454;28;19989;-62
2024/01/10 12:36:01;;;;;;;;;;;25.40;21.10;;;;;;5102706;28;19920;-63
2024/01/10 12:38:28;;;;;;;;;;;25.30;21.20;;;;;;5103699;28;20007;-62
2024/01/10 12:40:54;;;;;;;;;;;25.30;21.40;;;;;;5090802;28;19920;-63
2024/01/10 12:43:20;;;;;;;;;;;25.10;21.50;;;;;;5087430;28;19963;-62
2024/01/10 12:45:45;;;;;;;;;;;25.00;21.70;;;;;;5104169;28;20406;-63
2024/01/10 12:48:17;;;;;;;;;;;24.90;21.80;;;;;;5104417;28;19968;-63
2024/01/10 12:50:42;;;;;;;;;;;24.90;22.40;;;;;;5103072;28;19971;-62
2024/01/10 12:53:08;;;;;;;;;;;24.80;21.90;;;;;;5104262;28;19982;-62
2024/01/10 12:55:33;;;;;;;;;;;24.80;21.80;;;;;;5087137;28;19924;-62
2024/01/10 12:58:01;;;;;;;;;;;24.90;21.90;;;;;;5092373;28;19945;-62
2024/01/10 13:00:26;;;;;;;;;;;24.90;21.90;;;;;;5088311;28;19973;-62
2024/01/10 13:02:52;;;;;;;;;;;24.90;22.00;;;;;;5075558;28;19924;-64
2024/01/10 13:05:17;;;;;;;;;;;25.00;22.00;;;;;;5072644;28;19931;-63
2024/01/10 13:07:43;;;;;;;;;;;24.90;22.00;;;;;;5073029;28;19927;-64
2024/01/10 13:10:08;;;;;;;;;;;24.80;22.10;;;;;;5090831;28;19928;-63
2024/01/10 13:12:34;;;;;;;;;;;24.50;22.20;;;;;;5072674;28;20363;-64
2024/01/10 13:14:59;;;;;;;;;;;24.30;22.30;;;;;;5073289;28;19928;-65
2024/01/10 13:17:25;;;;;;;;;;;24.20;22.50;;;;;;5091235;28;19986;-65
2024/01/10 13:19:51;;;;;;;;;;;24.00;22.60;;;;;;5075688;28;20469;-65
2024/01/10 13:22:19;;;;;;;;;;;23.80;22.80;;;;;;5076261;28;20422;-64
2024/01/10 13:24:45;;;;;;;;;;;23.90;22.80;;;;;;5074617;28;19924;-65
2024/01/10 13:27:11;;;;;;;;;;;24.10;22.70;;;;;;5079433;28;19924;-64
2024/01/10 13:29:37;;;;;;;;;;;24.30;22.60;;;;;;5089903;28;19931;-65
2024/01/10 13:32:03;;;;;;;;;;;24.60;22.50;;;;;;5091578;28;20410;-65
2024/01/10 13:34:29;;;;;;;;;;;24.80;22.40;;;;;;5092678;28;19920;-65
2024/01/10 13:36:54;;;;;;;;;;;25.10;22.20;;;;;;5084025;28;19920;-65
2024/01/10 13:39:20;;;;;;;;;;;25.40;22.10;;;;;;5083823;28;20011;-64
2024/01/10 13:41:48;;;;;;;;;;;25.70;22.00;;;;;;5083428;28;20010;-64
2024/01/10 13:44:14;;;;;;;;;;;25.90;21.90;;;;;;5083443;28;19924;-65
2024/01/10 13:46:40;;;;;;;;;;;26.10;21.70;;;;;;5092938;28;20069;-64
2024/01/10 13:49:05;;;;;;;;;;;26.30;21.70;;;;;;5093384;28;20294;-64
2024/01/10 13:51:32;;;;;;;;;;;26.50;21.60;;;;;;5092274;28;19920;-65
2024/01/10 13:53:57;;;;;;;;;;;26.50;21.50;;;;;;5092058;28;19942;-65
2024/01/10 13:56:23;;;;;;;;;;;26.60;21.40;;;;;;5093237;28;20363;-65
2024/01/10 13:58:48;;;;;;;;;;;26.70;21.50;;;;;;5083227;28;19927;-65
2024/01/10 14:01:14;;;;;;;;;;;26.60;21.40;;;;;;5083458;28;19920;-64
2024/01/10 14:03:42;;;;;;;;;;;26.60;21.40;;;;;;5092412;28;19920;-65
2024/01/10 14:06:08;;;;;;;;;;;26.40;21.40;;;;;;5081876;28;19924;-64
2024/01/10 14:08:34;;;;;;;;;;;26.40;21.50;;;;;;5074736;28;19920;-65
2024/01/10 14:10:59;;;;;;;;;;;26.20;21.60;;;;;;5074280;28;19958;-64
2024/01/10 14:13:25;;;;;;;;;;;26.00;21.60;;;;;;5092259;28;19920;-65
2024/01/10 14:15:51;;;;;;;;;;;25.90;21.70;;;;;;5092889;28;19920;-65
2024/01/10 14:18:16;;;;;;;;;;;25.70;21.70;;;;;;5092224;28;19920;-64
2024/01/10 14:20:42;;;;;;;;;;;25.70;21.90;;;;;;5092243;28;19951;-64
2024/01/10 14:23:07;;;;;;;;;;;25.60;21.90;;;;;;5092841;28;19920;-64
2024/01/10 14:25:33;;;;;;;;;;;25.50;21.90;;;;;;5076704;28;20000;-65